PWSweather.com
Personal Weather Stations
Station Observations
KB2SBX
Sugarloaf, Sugarloaf, PA 18249

SugarloafSugarloaf, PA 18249

Lat: 41.0126685, Lon: -76.1082041

Elevation: 1030

Station Type: WS-2080

http://sugarloafpaweather.webng.com/weather.shtml

High Low Average
Temperature 82.4°F28.0°C 61.2°F16.2°C 69.1°F20.6°C
Dew Point 69.5°F20.8°C 58.8°F14.9°C 63.8°F17.7°C
Winds 3.8 mph 6.1 kmh Calm Calm Calm NECalm NE
Wind Gusts 14.5 mph23.3 kmh -- 2.0 mph3.2 kmh
Humidity 100% 48% 86%
Pressure 29.91 in1012.9 mb 29.78 in1008.5 mb -
Precipitation 0.17 in4.3 mm - -
Hour Temp Dew Point Humidity Winds Wind Gusts Pressure Precip Precip Rate Daily Precip Total
12:00 AM 66.9°F19.4°C 66.1°F18.9°C 97% Calm Calm -- 29.93 in1013.5 mb 0.02 in0.5 mm 0.00 in0.0 mm 0.02 in0.5 mm
12:10 AM 66.7°F19.3°C 65.9°F18.8°C 97% Calm Calm -- 29.92 in1013.2 mb 0.02 in0.5 mm 0.00 in0.0 mm 0.02 in0.5 mm
12:20 AM 66.7°F19.3°C 65.9°F18.8°C 97% Calm Calm -- 29.92 in1013.2 mb 0.03 in0.8 mm 0.06 in1.5 mm 0.01 in0.3 mm
12:30 AM 66.6°F19.2°C 66.6°F19.2°C 100% Calm Calm 0.7 mph1.1 kmh 29.92 in1013.2 mb 0.03 in0.8 mm 0.00 in0.0 mm 0.01 in0.3 mm
12:40 AM 66.2°F19.0°C 66.2°F19.0°C 100% Calm Calm 2.2 mph3.5 kmh 29.91 in1012.9 mb 0.03 in0.8 mm 0.00 in0.0 mm 0.01 in0.3 mm
12:50 AM 65.7°F18.7°C 65.4°F18.6°C 99% Calm Calm 1.6 mph2.6 kmh 29.91 in1012.9 mb 0.03 in0.8 mm 0.00 in0.0 mm 0.02 in0.5 mm
01:00 AM 65.3°F18.5°C 65.0°F18.3°C 99% Calm Calm 0.7 mph1.1 kmh 29.91 in1012.9 mb 0.03 in0.8 mm 0.00 in0.0 mm 0.02 in0.5 mm
01:10 AM 65.1°F18.4°C 64.9°F18.3°C 99% Calm Calm -- 29.91 in1012.9 mb 0.02 in0.5 mm 0.00 in0.0 mm 0.02 in0.5 mm
01:20 AM 64.9°F18.3°C 64.7°F18.2°C 99% Calm Calm -- 29.91 in1012.9 mb 0.02 in0.5 mm 0.00 in0.0 mm 0.03 in0.8 mm
01:30 AM 64.8°F18.2°C 64.5°F18.1°C 99% Calm Calm 0.7 mph1.1 kmh 29.90 in1012.5 mb 0.03 in0.8 mm 0.06 in1.5 mm 0.04 in1.0 mm
01:40 AM 64.2°F17.9°C 63.4°F17.4°C 97% 0.7 mph S1.1 kmh S 3.8 mph6.1 kmh 29.90 in1012.5 mb 0.04 in1.0 mm 0.06 in1.5 mm 0.05 in1.3 mm
01:50 AM 63.7°F17.6°C 62.8°F17.1°C 97% Calm Calm 1.6 mph2.6 kmh 29.90 in1012.5 mb 0.04 in1.0 mm 0.00 in0.0 mm 0.06 in1.5 mm
02:00 AM 63.1°F17.3°C 62.3°F16.8°C 97% Calm Calm 1.6 mph2.6 kmh 29.90 in1012.5 mb 0.04 in1.0 mm 0.00 in0.0 mm 0.07 in1.8 mm
02:10 AM 63.0°F17.2°C 62.1°F16.7°C 97% Calm Calm -- 29.90 in1012.5 mb 0.05 in1.3 mm 0.06 in1.5 mm 0.07 in1.8 mm
02:20 AM 62.6°F17.0°C 61.8°F16.6°C 97% Calm Calm 1.6 mph2.6 kmh 29.90 in1012.5 mb 0.05 in1.3 mm 0.00 in0.0 mm 0.08 in2.0 mm
02:30 AM 62.6°F17.0°C 61.8°F16.6°C 97% Calm Calm 0.7 mph1.1 kmh 29.90 in1012.5 mb 0.05 in1.3 mm 0.00 in0.0 mm 0.08 in2.0 mm
02:40 AM 62.2°F16.8°C 62.3°F16.8°C 100% Calm Calm 0.7 mph1.1 kmh 29.89 in1012.2 mb 0.05 in1.3 mm 0.00 in0.0 mm 0.10 in2.5 mm
02:50 AM 62.1°F16.7°C 62.1°F16.7°C 100% Calm Calm 1.6 mph2.6 kmh 29.89 in1012.2 mb 0.05 in1.3 mm 0.00 in0.0 mm 0.11 in2.8 mm
03:00 AM 61.9°F16.6°C 61.9°F16.6°C 100% Calm Calm 0.7 mph1.1 kmh 29.89 in1012.2 mb 0.05 in1.3 mm 0.00 in0.0 mm 0.11 in2.8 mm
03:10 AM 61.7°F16.5°C 61.7°F16.5°C 100% Calm Calm -- 29.89 in1012.2 mb 0.04 in1.0 mm 0.00 in0.0 mm 0.11 in2.8 mm
03:20 AM 61.7°F16.5°C 61.7°F16.5°C 100% Calm Calm -- 29.88 in1011.9 mb 0.05 in1.3 mm 0.06 in1.5 mm 0.13 in3.3 mm
03:30 AM 61.7°F16.5°C 61.7°F16.5°C 100% Calm Calm 0.7 mph1.1 kmh 29.88 in1011.9 mb 0.05 in1.3 mm 0.00 in0.0 mm 0.13 in3.3 mm
03:40 AM 61.7°F16.5°C 61.7°F16.5°C 100% Calm Calm -- 29.88 in1011.9 mb 0.04 in1.0 mm 0.00 in0.0 mm 0.14 in3.6 mm
03:50 AM 61.7°F16.5°C 61.7°F16.5°C 100% Calm Calm 1.6 mph2.6 kmh 29.87 in1011.5 mb 0.04 in1.0 mm 0.00 in0.0 mm 0.14 in3.6 mm
04:00 AM 61.5°F16.4°C 61.5°F16.4°C 100% Calm Calm 0.7 mph1.1 kmh 29.87 in1011.5 mb 0.03 in0.8 mm 0.00 in0.0 mm 0.14 in3.6 mm
04:10 AM 61.7°F16.5°C 61.7°F16.5°C 100% Calm Calm 0.7 mph1.1 kmh 29.87 in1011.5 mb 0.03 in0.8 mm 0.00 in0.0 mm 0.14 in3.6 mm
04:20 AM 61.7°F16.5°C 61.7°F16.5°C 100% Calm Calm 1.6 mph2.6 kmh 29.87 in1011.5 mb 0.02 in0.5 mm 0.00 in0.0 mm 0.14 in3.6 mm
04:30 AM 61.5°F16.4°C 61.5°F16.4°C 100% 0.7 mph S1.1 kmh S 1.6 mph2.6 kmh 29.87 in1011.5 mb 0.01 in0.3 mm 0.00 in0.0 mm 0.14 in3.6 mm
04:40 AM 61.5°F16.4°C 61.5°F16.4°C 100% Calm Calm 2.2 mph3.5 kmh 29.87 in1011.5 mb 0.01 in0.3 mm 0.00 in0.0 mm 0.14 in3.6 mm
04:50 AM 61.3°F16.3°C 61.4°F16.3°C 100% Calm Calm 2.2 mph3.5 kmh 29.87 in1011.5 mb 0.00 in0.0 mm 0.00 in0.0 mm 0.14 in3.6 mm
05:00 AM 61.5°F16.4°C 61.5°F16.4°C 100% Calm Calm 0.7 mph1.1 kmh 29.87 in1011.5 mb 0.00 in0.0 mm 0.00 in0.0 mm 0.14 in3.6 mm
05:10 AM 61.5°F16.4°C 61.5°F16.4°C 100% Calm Calm 0.7 mph1.1 kmh 29.87 in1011.5 mb 0.00 in0.0 mm 0.00 in0.0 mm 0.14 in3.6 mm
05:20 AM 61.5°F16.4°C 61.5°F16.4°C 100% Calm Calm 0.7 mph1.1 kmh 29.87 in1011.5 mb 0.00 in0.0 mm 0.00 in0.0 mm 0.14 in3.6 mm
05:30 AM 61.5°F16.4°C 61.5°F16.4°C 100% Calm Calm -- 29.87 in1011.5 mb 0.00 in0.0 mm 0.00 in0.0 mm 0.14 in3.6 mm
05:40 AM 61.5°F16.4°C 61.5°F16.4°C 100% Calm Calm -- 29.86 in1011.2 mb 0.00 in0.0 mm 0.00 in0.0 mm 0.14 in3.6 mm
05:50 AM 61.3°F16.3°C 61.4°F16.3°C 100% Calm Calm -- 29.88 in1011.9 mb 0.00 in0.0 mm 0.00 in0.0 mm 0.14 in3.6 mm
06:00 AM 61.3°F16.3°C 61.4°F16.3°C 100% Calm Calm -- 29.88 in1011.9 mb 0.00 in0.0 mm 0.00 in0.0 mm 0.14 in3.6 mm
06:10 AM 61.2°F16.2°C 61.2°F16.2°C 100% Calm Calm -- 29.88 in1011.9 mb 0.01 in0.3 mm 0.06 in1.5 mm 0.15 in3.8 mm
06:20 AM 61.3°F16.3°C 61.4°F16.3°C 100% Calm Calm -- 29.87 in1011.5 mb 0.01 in0.3 mm 0.00 in0.0 mm 0.15 in3.8 mm
06:30 AM 61.5°F16.4°C 61.5°F16.4°C 100% Calm Calm 0.7 mph1.1 kmh 29.88 in1011.9 mb 0.01 in0.3 mm 0.00 in0.0 mm 0.15 in3.8 mm
06:40 AM 61.7°F16.5°C 61.7°F16.5°C 100% Calm Calm 0.7 mph1.1 kmh 29.88 in1011.9 mb 0.01 in0.3 mm 0.00 in0.0 mm 0.15 in3.8 mm
06:50 AM 61.7°F16.5°C 61.7°F16.5°C 100% Calm Calm -- 29.88 in1011.9 mb 0.01 in0.3 mm 0.00 in0.0 mm 0.15 in3.8 mm
07:00 AM 61.9°F16.6°C 61.9°F16.6°C 100% Calm Calm 0.7 mph1.1 kmh 29.89 in1012.2 mb 0.01 in0.3 mm 0.00 in0.0 mm 0.15 in3.8 mm
07:10 AM 62.2°F16.8°C 62.3°F16.8°C 100% Calm Calm 0.7 mph1.1 kmh 29.88 in1011.9 mb 0.01 in0.3 mm 0.00 in0.0 mm 0.16 in4.1 mm
07:20 AM 62.6°F17.0°C 61.8°F16.6°C 97% Calm Calm -- 29.89 in1012.2 mb 0.01 in0.3 mm 0.00 in0.0 mm 0.16 in4.1 mm
07:30 AM 62.6°F17.0°C 61.8°F16.6°C 97% Calm Calm 0.7 mph1.1 kmh 29.89 in1012.2 mb 0.01 in0.3 mm 0.00 in0.0 mm 0.16 in4.1 mm
07:40 AM 63.0°F17.2°C 62.1°F16.7°C 97% Calm Calm 0.7 mph1.1 kmh 29.89 in1012.2 mb 0.01 in0.3 mm 0.00 in0.0 mm 0.16 in4.1 mm
07:50 AM 63.1°F17.3°C 62.3°F16.8°C 97% Calm Calm 1.6 mph2.6 kmh 29.89 in1012.2 mb 0.01 in0.3 mm 0.00 in0.0 mm 0.16 in4.1 mm
08:00 AM 63.3°F17.4°C 62.5°F16.9°C 97% Calm Calm 1.6 mph2.6 kmh 29.89 in1012.2 mb 0.01 in0.3 mm 0.00 in0.0 mm 0.16 in4.1 mm
08:10 AM 63.5°F17.5°C 62.7°F17.1°C 97% Calm Calm -- 29.90 in1012.5 mb 0.00 in0.0 mm 0.00 in0.0 mm 0.16 in4.1 mm
08:20 AM 63.7°F17.6°C 62.8°F17.1°C 97% Calm Calm 0.7 mph1.1 kmh 29.89 in1012.2 mb 0.00 in0.0 mm 0.00 in0.0 mm 0.16 in4.1 mm
08:30 AM 64.0°F17.8°C 63.2°F17.3°C 97% Calm Calm 0.7 mph1.1 kmh 29.89 in1012.2 mb 0.00 in0.0 mm 0.00 in0.0 mm 0.16 in4.1 mm
08:40 AM 64.8°F18.2°C 64.5°F18.1°C 99% Calm Calm 1.6 mph2.6 kmh 29.90 in1012.5 mb 0.00 in0.0 mm 0.00 in0.0 mm 0.16 in4.1 mm
08:50 AM 65.1°F18.4°C 64.9°F18.3°C 99% Calm Calm 1.6 mph2.6 kmh 29.90 in1012.5 mb 0.00 in0.0 mm 0.00 in0.0 mm 0.16 in4.1 mm
09:00 AM 65.7°F18.7°C 65.4°F18.6°C 99% Calm Calm 1.6 mph2.6 kmh 29.89 in1012.2 mb 0.00 in0.0 mm 0.00 in0.0 mm 0.16 in4.1 mm
09:10 AM 66.6°F19.2°C 66.3°F19.1°C 99% Calm Calm 1.6 mph2.6 kmh 29.88 in1011.9 mb 0.00 in0.0 mm 0.00 in0.0 mm 0.16 in4.1 mm
09:20 AM 67.1°F19.5°C 66.8°F19.3°C 99% Calm Calm 1.6 mph2.6 kmh 29.88 in1011.9 mb 0.00 in0.0 mm 0.00 in0.0 mm 0.16 in4.1 mm
09:30 AM 67.6°F19.8°C 67.4°F19.7°C 99% Calm Calm 1.6 mph2.6 kmh 29.88 in1011.9 mb 0.00 in0.0 mm 0.00 in0.0 mm 0.16 in4.1 mm
09:40 AM 68.9°F20.5°C 68.6°F20.3°C 99% Calm Calm 2.2 mph3.5 kmh 29.88 in1011.9 mb 0.00 in0.0 mm 0.00 in0.0 mm 0.16 in4.1 mm
09:50 AM 70.3°F21.3°C 69.5°F20.8°C 97% Calm Calm 2.2 mph3.5 kmh 29.88 in1011.9 mb 0.00 in0.0 mm 0.00 in0.0 mm 0.16 in4.1 mm
10:00 AM 71.2°F21.8°C 69.1°F20.6°C 93% 0.7 mph NW1.1 kmh NW 2.2 mph3.5 kmh 29.88 in1011.9 mb 0.00 in0.0 mm 0.00 in0.0 mm 0.16 in4.1 mm
10:10 AM 72.0°F22.2°C 68.2°F20.1°C 88% Calm Calm 1.6 mph2.6 kmh 29.88 in1011.9 mb 0.00 in0.0 mm 0.00 in0.0 mm 0.16 in4.1 mm
10:20 AM 71.8°F22.1°C 66.0°F18.9°C 82% 0.7 mph SSW1.1 kmh SSW 4.5 mph7.2 kmh 29.87 in1011.5 mb 0.00 in0.0 mm 0.00 in0.0 mm 0.16 in4.1 mm
10:30 AM 72.0°F22.2°C 65.8°F18.8°C 81% Calm Calm 3.1 mph5.0 kmh 29.86 in1011.2 mb 0.00 in0.0 mm 0.00 in0.0 mm 0.16 in4.1 mm
10:40 AM 72.0°F22.2°C 65.5°F18.6°C 80% 1.6 mph SE2.6 kmh SE 3.1 mph5.0 kmh 29.86 in1011.2 mb 0.00 in0.0 mm 0.00 in0.0 mm 0.16 in4.1 mm
10:50 AM 71.4°F21.9°C 65.3°F18.5°C 81% 0.7 mph SE1.1 kmh SE 4.5 mph7.2 kmh 29.86 in1011.2 mb 0.00 in0.0 mm 0.00 in0.0 mm 0.16 in4.1 mm
11:00 AM 72.5°F22.5°C 66.0°F18.9°C 80% 0.7 mph E1.1 kmh E 2.2 mph3.5 kmh 29.85 in1010.8 mb 0.00 in0.0 mm 0.00 in0.0 mm 0.16 in4.1 mm
11:10 AM 73.8°F23.2°C 66.5°F19.2°C 78% 1.6 mph ESE2.6 kmh ESE 3.8 mph6.1 kmh 29.86 in1011.2 mb 0.00 in0.0 mm 0.00 in0.0 mm 0.16 in4.1 mm
11:20 AM 74.5°F23.6°C 66.1°F18.9°C 75% 2.2 mph E3.5 kmh E 6.0 mph9.7 kmh 29.86 in1011.2 mb 0.00 in0.0 mm 0.00 in0.0 mm 0.16 in4.1 mm
11:30 AM 75.4°F24.1°C 66.9°F19.4°C 75% 1.6 mph ENE2.6 kmh ENE 3.8 mph6.1 kmh 29.86 in1011.2 mb 0.00 in0.0 mm 0.00 in0.0 mm 0.16 in4.1 mm
11:40 AM 75.7°F24.3°C 66.1°F18.9°C 72% 1.6 mph ESE2.6 kmh ESE 5.4 mph8.7 kmh 29.85 in1010.8 mb 0.00 in0.0 mm 0.00 in0.0 mm 0.16 in4.1 mm
11:50 AM 76.3°F24.6°C 65.8°F18.8°C 70% 3.1 mph E5.0 kmh E 4.5 mph7.2 kmh 29.85 in1010.8 mb 0.00 in0.0 mm 0.00 in0.0 mm 0.16 in4.1 mm
12:00 PM 77.5°F25.3°C 67.4°F19.7°C 71% 0.7 mph SW1.1 kmh SW 5.4 mph8.7 kmh 29.85 in1010.8 mb 0.00 in0.0 mm 0.00 in0.0 mm 0.16 in4.1 mm
12:10 PM 78.3°F25.7°C 67.7°F19.8°C 70% 2.2 mph NNE3.5 kmh NNE 4.5 mph7.2 kmh 29.84 in1010.5 mb 0.00 in0.0 mm 0.00 in0.0 mm 0.16 in4.1 mm
12:20 PM 78.6°F25.9°C 66.8°F19.3°C 67% 2.2 mph SE3.5 kmh SE 6.0 mph9.7 kmh 29.84 in1010.5 mb 0.00 in0.0 mm 0.00 in0.0 mm 0.16 in4.1 mm
12:30 PM 78.8°F26.0°C 65.6°F18.7°C 64% 2.2 mph SE3.5 kmh SE 5.4 mph8.7 kmh 29.84 in1010.5 mb 0.00 in0.0 mm 0.00 in0.0 mm 0.16 in4.1 mm
12:40 PM 79.3°F26.3°C 67.9°F19.9°C 68% 0.7 mph SSW1.1 kmh SSW 6.0 mph9.7 kmh 29.84 in1010.5 mb 0.00 in0.0 mm 0.00 in0.0 mm 0.16 in4.1 mm
12:50 PM 79.3°F26.3°C 65.7°F18.7°C 63% 0.7 mph N1.1 kmh N 6.0 mph9.7 kmh 29.83 in1010.2 mb 0.00 in0.0 mm 0.00 in0.0 mm 0.16 in4.1 mm
01:00 PM 79.7°F26.5°C 66.5°F19.2°C 64% 1.6 mph N2.6 kmh N 6.0 mph9.7 kmh 29.83 in1010.2 mb 0.00 in0.0 mm 0.00 in0.0 mm 0.16 in4.1 mm
01:10 PM 79.3°F26.3°C 66.1°F18.9°C 64% 1.6 mph ESE2.6 kmh ESE 3.8 mph6.1 kmh 29.82 in1009.8 mb 0.00 in0.0 mm 0.00 in0.0 mm 0.16 in4.1 mm
01:20 PM 79.7°F26.5°C 64.6°F18.1°C 60% 0.7 mph NE1.1 kmh NE 5.4 mph8.7 kmh 29.82 in1009.8 mb 0.00 in0.0 mm 0.00 in0.0 mm 0.16 in4.1 mm
01:30 PM 80.1°F26.7°C 65.0°F18.3°C 60% 2.2 mph SE3.5 kmh SE 6.0 mph9.7 kmh 29.82 in1009.8 mb 0.00 in0.0 mm 0.00 in0.0 mm 0.16 in4.1 mm
01:40 PM 80.2°F26.8°C 62.7°F17.1°C 55% 1.6 mph SSE2.6 kmh SSE 6.0 mph9.7 kmh 29.82 in1009.8 mb 0.00 in0.0 mm 0.00 in0.0 mm 0.16 in4.1 mm
01:50 PM 80.8°F27.1°C 66.1°F18.9°C 61% 1.6 mph SE2.6 kmh SE 4.5 mph7.2 kmh 29.82 in1009.8 mb 0.00 in0.0 mm 0.00 in0.0 mm 0.16 in4.1 mm
02:00 PM 81.5°F27.5°C 63.8°F17.7°C 55% 0.7 mph SSE1.1 kmh SSE 3.8 mph6.1 kmh 29.82 in1009.8 mb 0.00 in0.0 mm 0.00 in0.0 mm 0.16 in4.1 mm
02:10 PM 81.5°F27.5°C 65.3°F18.5°C 58% 1.6 mph SSE2.6 kmh SSE 2.2 mph3.5 kmh 29.82 in1009.8 mb 0.00 in0.0 mm 0.00 in0.0 mm 0.16 in4.1 mm
02:20 PM 82.0°F27.8°C 64.8°F18.2°C 56% 0.7 mph N1.1 kmh N 3.8 mph6.1 kmh 29.81 in1009.5 mb 0.00 in0.0 mm 0.00 in0.0 mm 0.16 in4.1 mm
02:30 PM 82.2°F27.9°C 64.0°F17.8°C 54% 1.6 mph SE2.6 kmh SE 5.4 mph8.7 kmh 29.81 in1009.5 mb 0.00 in0.0 mm 0.00 in0.0 mm 0.16 in4.1 mm
02:40 PM 82.0°F27.8°C 63.3°F17.4°C 53% 2.2 mph NE3.5 kmh NE 6.0 mph9.7 kmh 29.81 in1009.5 mb 0.00 in0.0 mm 0.00 in0.0 mm 0.16 in4.1 mm
02:50 PM 82.2°F27.9°C 63.4°F17.4°C 53% 3.1 mph N5.0 kmh N 6.0 mph9.7 kmh 29.81 in1009.5 mb 0.00 in0.0 mm 0.00 in0.0 mm 0.16 in4.1 mm
03:00 PM 82.0°F27.8°C 61.6°F16.4°C 50% Calm Calm 6.0 mph9.7 kmh 29.80 in1009.1 mb 0.00 in0.0 mm 0.00 in0.0 mm 0.16 in4.1 mm
03:10 PM 82.0°F27.8°C 61.6°F16.4°C 50% Calm Calm 5.4 mph8.7 kmh 29.80 in1009.1 mb 0.00 in0.0 mm 0.00 in0.0 mm 0.16 in4.1 mm
03:20 PM 81.5°F27.5°C 60.0°F15.6°C 48% 0.7 mph SE1.1 kmh SE 6.9 mph11.1 kmh 29.80 in1009.1 mb 0.00 in0.0 mm 0.00 in0.0 mm 0.16 in4.1 mm
03:30 PM 81.7°F27.6°C 61.3°F16.3°C 50% 1.6 mph SSE2.6 kmh SSE 4.5 mph7.2 kmh 29.80 in1009.1 mb 0.00 in0.0 mm 0.00 in0.0 mm 0.16 in4.1 mm
03:40 PM 81.7°F27.6°C 62.4°F16.9°C 52% 1.6 mph NNE2.6 kmh NNE 3.1 mph5.0 kmh 29.79 in1008.8 mb 0.00 in0.0 mm 0.00 in0.0 mm 0.16 in4.1 mm
03:50 PM 81.7°F27.6°C 62.9°F17.2°C 53% Calm Calm 3.8 mph6.1 kmh 29.78 in1008.5 mb 0.00 in0.0 mm 0.00 in0.0 mm 0.16 in4.1 mm
04:00 PM 81.5°F27.5°C 64.3°F17.9°C 56% 3.8 mph SE6.1 kmh SE 5.4 mph8.7 kmh 29.78 in1008.5 mb 0.00 in0.0 mm 0.00 in0.0 mm 0.16 in4.1 mm
04:10 PM 81.7°F27.6°C 64.5°F18.1°C 56% Calm Calm 5.4 mph8.7 kmh 29.78 in1008.5 mb 0.00 in0.0 mm 0.00 in0.0 mm 0.16 in4.1 mm
04:20 PM 81.9°F27.7°C 65.7°F18.7°C 58% 2.2 mph N3.5 kmh N 3.8 mph6.1 kmh 29.78 in1008.5 mb 0.00 in0.0 mm 0.00 in0.0 mm 0.16 in4.1 mm
04:30 PM 82.4°F28.0°C 65.7°F18.7°C 57% 0.7 mph NNW1.1 kmh NNW 3.1 mph5.0 kmh 29.78 in1008.5 mb 0.00 in0.0 mm 0.00 in0.0 mm 0.16 in4.1 mm
04:40 PM 82.4°F28.0°C 64.1°F17.8°C 54% 0.7 mph SSW1.1 kmh SSW 3.8 mph6.1 kmh 29.78 in1008.5 mb 0.00 in0.0 mm 0.00 in0.0 mm 0.16 in4.1 mm
04:50 PM 82.4°F28.0°C 61.4°F16.3°C 49% 1.6 mph S2.6 kmh S 6.9 mph11.1 kmh 29.78 in1008.5 mb 0.00 in0.0 mm 0.00 in0.0 mm 0.16 in4.1 mm
05:00 PM 82.4°F28.0°C 63.6°F17.6°C 53% Calm Calm 6.9 mph11.1 kmh 29.79 in1008.8 mb 0.00 in0.0 mm 0.00 in0.0 mm 0.16 in4.1 mm
05:10 PM 82.0°F27.8°C 62.2°F16.8°C 51% 0.7 mph NE1.1 kmh NE 6.9 mph11.1 kmh 29.79 in1008.8 mb 0.00 in0.0 mm 0.00 in0.0 mm 0.16 in4.1 mm
05:20 PM 80.6°F27.0°C 64.5°F18.1°C 58% 1.6 mph WNW2.6 kmh WNW 4.5 mph7.2 kmh 29.81 in1009.5 mb 0.00 in0.0 mm 0.00 in0.0 mm 0.16 in4.1 mm
05:30 PM 77.2°F25.1°C 58.8°F14.9°C 53% 3.1 mph NW5.0 kmh NW 14.5 mph23.3 kmh 29.81 in1009.5 mb 0.00 in0.0 mm 0.00 in0.0 mm 0.16 in4.1 mm
05:40 PM 73.6°F23.1°C 59.8°F15.4°C 62% 3.8 mph N6.1 kmh N 10.7 mph17.2 kmh 29.80 in1009.1 mb 0.00 in0.0 mm 0.00 in0.0 mm 0.16 in4.1 mm
05:50 PM 71.6°F22.0°C 61.7°F16.5°C 71% 0.7 mph NNW1.1 kmh NNW 6.0 mph9.7 kmh 29.81 in1009.5 mb 0.00 in0.0 mm 0.00 in0.0 mm 0.16 in4.1 mm
06:00 PM 69.6°F20.9°C 63.6°F17.6°C 81% 0.7 mph SE1.1 kmh SE 3.8 mph6.1 kmh 29.82 in1009.8 mb 0.00 in0.0 mm 0.00 in0.0 mm 0.16 in4.1 mm
06:10 PM 69.1°F20.6°C 63.4°F17.4°C 82% 0.7 mph SSW1.1 kmh SSW 1.6 mph2.6 kmh 29.82 in1009.8 mb 0.00 in0.0 mm 0.00 in0.0 mm 0.16 in4.1 mm
06:20 PM 69.1°F20.6°C 64.1°F17.8°C 84% Calm Calm 2.2 mph3.5 kmh 29.82 in1009.8 mb 0.00 in0.0 mm 0.00 in0.0 mm 0.16 in4.1 mm
06:30 PM 68.9°F20.5°C 64.9°F18.3°C 87% Calm Calm 1.6 mph2.6 kmh 29.82 in1009.8 mb 0.00 in0.0 mm 0.00 in0.0 mm 0.16 in4.1 mm
06:40 PM 68.9°F20.5°C 64.9°F18.3°C 87% Calm Calm 0.7 mph1.1 kmh 29.82 in1009.8 mb 0.00 in0.0 mm 0.00 in0.0 mm 0.16 in4.1 mm
06:50 PM 68.9°F20.5°C 65.2°F18.4°C 88% Calm Calm 0.7 mph1.1 kmh 29.82 in1009.8 mb 0.00 in0.0 mm 0.00 in0.0 mm 0.16 in4.1 mm
07:00 PM 69.1°F20.6°C 65.4°F18.6°C 88% Calm Calm 2.2 mph3.5 kmh 29.82 in1009.8 mb 0.00 in0.0 mm 0.00 in0.0 mm 0.16 in4.1 mm
07:10 PM 68.5°F20.3°C 64.9°F18.3°C 88% Calm Calm 1.6 mph2.6 kmh 29.82 in1009.8 mb 0.01 in0.3 mm 0.06 in1.5 mm 0.16 in4.1 mm
07:20 PM 68.0°F20.0°C 65.0°F18.3°C 90% Calm Calm 1.6 mph2.6 kmh 29.82 in1009.8 mb 0.01 in0.3 mm 0.00 in0.0 mm 0.16 in4.1 mm
07:30 PM 67.8°F19.9°C 65.4°F18.6°C 92% Calm Calm 1.6 mph2.6 kmh 29.82 in1009.8 mb 0.01 in0.3 mm 0.00 in0.0 mm 0.16 in4.1 mm
07:40 PM 67.6°F19.8°C 65.6°F18.7°C 93% Calm Calm 0.7 mph1.1 kmh 29.83 in1010.2 mb 0.01 in0.3 mm 0.00 in0.0 mm 0.17 in4.3 mm
07:50 PM 67.3°F19.6°C 65.2°F18.4°C 93% Calm Calm 1.6 mph2.6 kmh 29.83 in1010.2 mb 0.01 in0.3 mm 0.00 in0.0 mm 0.17 in4.3 mm
08:00 PM 67.3°F19.6°C 65.5°F18.6°C 94% Calm Calm 0.7 mph1.1 kmh 29.83 in1010.2 mb 0.01 in0.3 mm 0.00 in0.0 mm 0.17 in4.3 mm
08:20 PM 67.1°F19.5°C 65.6°F18.7°C 95% Calm Calm 0.7 mph1.1 kmh 29.82 in1009.8 mb 0.01 in0.3 mm 0.00 in0.0 mm 0.17 in4.3 mm
08:30 PM 67.1°F19.5°C 66.0°F18.9°C 96% Calm Calm 0.7 mph1.1 kmh 29.82 in1009.8 mb 0.01 in0.3 mm 0.00 in0.0 mm 0.17 in4.3 mm
08:50 PM 66.9°F19.4°C 66.1°F18.9°C 97% Calm Calm 0.7 mph1.1 kmh 29.82 in1009.8 mb 0.00 in0.0 mm 0.00 in0.0 mm 0.17 in4.3 mm
09:00 PM 66.7°F19.3°C 65.9°F18.8°C 97% Calm Calm 0.7 mph1.1 kmh 29.83 in1010.2 mb 0.00 in0.0 mm 0.00 in0.0 mm 0.17 in4.3 mm
09:10 PM 66.4°F19.1°C 65.5°F18.6°C 97% Calm Calm -- 29.83 in1010.2 mb 0.00 in0.0 mm 0.00 in0.0 mm 0.17 in4.3 mm
09:20 PM 66.0°F18.9°C 66.0°F18.9°C 100% Calm Calm 0.7 mph1.1 kmh 29.83 in1010.2 mb 0.00 in0.0 mm 0.00 in0.0 mm 0.17 in4.3 mm
09:30 PM 65.7°F18.7°C 65.7°F18.7°C 100% Calm Calm 0.7 mph1.1 kmh 29.84 in1010.5 mb 0.00 in0.0 mm 0.00 in0.0 mm 0.17 in4.3 mm
09:40 PM 65.5°F18.6°C 65.5°F18.6°C 100% Calm Calm -- 29.84 in1010.5 mb 0.00 in0.0 mm 0.00 in0.0 mm 0.17 in4.3 mm
09:50 PM 65.3°F18.5°C 65.3°F18.5°C 100% Calm Calm -- 29.84 in1010.5 mb 0.00 in0.0 mm 0.00 in0.0 mm 0.17 in4.3 mm
10:00 PM 64.9°F18.3°C 65.0°F18.3°C 100% Calm Calm -- 29.84 in1010.5 mb 0.00 in0.0 mm 0.00 in0.0 mm 0.17 in4.3 mm
10:10 PM 64.6°F18.1°C 64.3°F17.9°C 99% Calm Calm -- 29.85 in1010.8 mb 0.00 in0.0 mm 0.00 in0.0 mm 0.17 in4.3 mm
10:20 PM 64.4°F18.0°C 64.1°F17.8°C 99% Calm Calm -- 29.85 in1010.8 mb 0.00 in0.0 mm 0.00 in0.0 mm 0.17 in4.3 mm
10:30 PM 64.2°F17.9°C 63.4°F17.4°C 97% Calm Calm -- 29.86 in1011.2 mb 0.00 in0.0 mm 0.00 in0.0 mm 0.17 in4.3 mm
10:40 PM 64.2°F17.9°C 63.4°F17.4°C 97% Calm Calm -- 29.85 in1010.8 mb 0.00 in0.0 mm 0.00 in0.0 mm 0.17 in4.3 mm
10:50 PM 64.0°F17.8°C 63.2°F17.3°C 97% Calm Calm -- 29.85 in1010.8 mb 0.00 in0.0 mm 0.00 in0.0 mm 0.17 in4.3 mm
11:00 PM 63.9°F17.7°C 63.0°F17.2°C 97% Calm Calm -- 29.85 in1010.8 mb 0.00 in0.0 mm 0.00 in0.0 mm 0.17 in4.3 mm
11:10 PM 63.7°F17.6°C 62.8°F17.1°C 97% Calm Calm -- 29.85 in1010.8 mb 0.00 in0.0 mm 0.00 in0.0 mm 0.17 in4.3 mm
11:20 PM 63.7°F17.6°C 62.8°F17.1°C 97% Calm Calm -- 29.85 in1010.8 mb 0.00 in0.0 mm 0.00 in0.0 mm 0.17 in4.3 mm
11:30 PM 63.5°F17.5°C 62.7°F17.1°C 97% Calm Calm -- 29.85 in1010.8 mb 0.00 in0.0 mm 0.00 in0.0 mm 0.17 in4.3 mm
11:40 PM 63.5°F17.5°C 62.7°F17.1°C 97% Calm Calm -- 29.84 in1010.5 mb 0.00 in0.0 mm 0.00 in0.0 mm 0.17 in4.3 mm
11:50 PM 63.5°F17.5°C 62.7°F17.1°C 97% Calm Calm -- 29.85 in1010.8 mb 0.00 in0.0 mm 0.00 in0.0 mm 0.17 in4.3 mm